createdAt,value
2023-03-03T00:01:25.445Z,27.15
2023-03-03T00:04:10.602Z,31.23
2023-03-03T00:06:55.937Z,25.98
2023-03-03T00:09:41.294Z,25.20
2023-03-03T00:12:29.694Z,27.98
2023-03-03T00:15:20.318Z,26.90
2023-03-03T00:18:18.706Z,25.90
2023-03-03T00:21:12.186Z,24.85
2023-03-03T00:24:02.502Z,29.85
2023-03-03T00:26:55.959Z,25.83
2023-03-03T00:29:46.489Z,30.33
2023-03-03T00:32:46.968Z,31.42
2023-03-03T00:35:35.796Z,34.60
2023-03-03T00:38:20.957Z,34.85
2023-03-03T00:41:26.924Z,35.25
2023-03-03T00:44:44.399Z,36.15
2023-03-03T00:47:38.323Z,41.65
2023-03-03T00:50:33.366Z,42.45
2023-03-03T00:53:20.165Z,41.83
2023-03-03T00:56:05.663Z,39.00
2023-03-03T00:58:51.211Z,45.30
2023-03-03T01:01:36.590Z,42.13
2023-03-03T01:04:21.979Z,41.03
2023-03-03T01:07:07.308Z,46.00
2023-03-03T01:09:52.908Z,37.92
2023-03-03T01:12:38.734Z,41.15
2023-03-03T01:15:24.020Z,44.60
2023-03-03T01:18:11.505Z,39.97
2023-03-03T01:20:56.785Z,41.92
2023-03-03T01:23:42.265Z,43.70
2023-03-03T01:26:27.659Z,45.88
2023-03-03T01:29:12.978Z,40.42
2023-03-03T01:31:58.343Z,37.50
2023-03-03T01:34:43.567Z,37.70
2023-03-03T01:37:28.893Z,41.45
2023-03-03T01:40:21.701Z,40.38
2023-03-03T01:45:53.218Z,38.95
2023-03-03T01:48:42.620Z,42.85
2023-03-03T01:51:33.609Z,42.78
2023-03-03T01:54:25.290Z,43.28
2023-03-03T01:57:16.139Z,45.08
2023-03-03T02:00:05.031Z,42.95
2023-03-03T02:02:51.147Z,43.15
2023-03-03T02:05:36.979Z,46.13
2023-03-03T02:08:27.761Z,43.40
2023-03-03T02:11:13.506Z,47.38
2023-03-03T02:13:58.795Z,44.05
2023-03-03T02:16:44.404Z,48.60
2023-03-03T02:20:01.805Z,44.78
2023-03-03T02:23:10.306Z,49.92
2023-03-03T02:25:59.357Z,49.33
2023-03-03T02:28:45.096Z,48.75
2023-03-03T02:31:31.449Z,45.67
2023-03-03T02:34:17.644Z,44.83
2023-03-03T02:37:04.000Z,44.40
2023-03-03T02:39:49.331Z,48.53
2023-03-03T02:42:34.853Z,49.97
2023-03-03T02:45:20.354Z,46.40
2023-03-03T02:48:05.811Z,49.10
2023-03-03T02:50:51.439Z,49.08
2023-03-03T02:53:36.825Z,47.58
2023-03-03T02:56:22.785Z,49.83
2023-03-03T02:59:08.507Z,49.50
2023-03-03T03:01:54.133Z,47.67
2023-03-03T03:04:39.373Z,53.22
2023-03-03T03:07:24.584Z,46.00
2023-03-03T03:10:11.176Z,47.35
2023-03-03T03:12:56.215Z,46.15
2023-03-03T03:15:41.721Z,43.08
2023-03-03T03:18:27.819Z,46.03
2023-03-03T03:21:14.113Z,49.38
2023-03-03T03:23:59.627Z,51.25
2023-03-03T03:26:45.111Z,50.50
2023-03-03T03:29:30.454Z,54.10
2023-03-03T03:32:15.977Z,46.15
2023-03-03T03:35:01.281Z,48.60
2023-03-03T03:37:46.761Z,48.47
2023-03-03T03:40:32.117Z,51.95
2023-03-03T03:43:17.567Z,51.53
2023-03-03T03:46:03.035Z,54.70
2023-03-03T03:48:48.395Z,51.85
2023-03-03T03:51:35.546Z,52.75
2023-03-03T03:54:20.700Z,50.75
2023-03-03T03:57:06.264Z,54.17
2023-03-03T03:59:51.725Z,47.65
2023-03-03T04:02:37.666Z,52.22
2023-03-03T04:05:23.369Z,46.53
2023-03-03T04:08:09.764Z,51.20
2023-03-03T04:10:55.238Z,55.30
2023-03-03T04:13:40.542Z,51.75
2023-03-03T04:16:25.958Z,51.45
2023-03-03T04:19:11.399Z,50.78
2023-03-03T04:21:56.718Z,49.38
2023-03-03T04:24:42.198Z,50.40
2023-03-03T04:27:27.635Z,50.40
2023-03-03T04:30:15.400Z,50.45
2023-03-03T04:33:00.419Z,50.33
2023-03-03T04:35:45.966Z,54.53
2023-03-03T04:38:31.447Z,50.45
2023-03-03T04:41:17.120Z,50.08
2023-03-03T04:44:02.441Z,53.22
2023-03-03T04:46:47.882Z,51.20
2023-03-03T04:49:33.334Z,47.95
2023-03-03T04:52:18.722Z,51.80
2023-03-03T04:55:04.945Z,51.83
2023-03-03T04:57:49.997Z,49.67
2023-03-03T05:00:35.682Z,37.67
2023-03-03T05:03:21.788Z,49.90
2023-03-03T05:06:07.744Z,48.40
2023-03-03T05:08:53.024Z,48.88
2023-03-03T05:11:38.866Z,46.78
2023-03-03T05:14:24.307Z,47.85
2023-03-03T05:17:09.714Z,51.30
2023-03-03T05:19:57.253Z,53.35
2023-03-03T05:22:43.057Z,49.90
2023-03-03T05:25:28.541Z,48.13
2023-03-03T05:28:14.581Z,43.88
2023-03-03T05:30:59.760Z,47.92
2023-03-03T05:33:45.013Z,46.53
2023-03-03T05:36:30.571Z,51.60
2023-03-03T05:39:16.144Z,49.53
2023-03-03T05:42:01.554Z,43.15
2023-03-03T05:44:47.003Z,48.47
2023-03-03T05:47:32.373Z,43.22
2023-03-03T05:50:22.680Z,40.67
2023-03-03T05:53:07.930Z,36.45
2023-03-03T05:55:53.317Z,39.00
2023-03-03T05:58:38.595Z,38.15
2023-03-03T06:01:23.893Z,42.13
2023-03-03T06:04:09.776Z,37.45
2023-03-03T06:06:54.999Z,35.15
2023-03-03T06:09:40.450Z,40.60
2023-03-03T06:12:25.907Z,37.85
2023-03-03T06:15:11.607Z,42.70
2023-03-03T06:17:56.723Z,43.67
2023-03-03T06:20:42.030Z,36.08
2023-03-03T06:23:27.514Z,38.55
2023-03-03T06:26:12.690Z,35.95
2023-03-03T06:28:58.096Z,38.53
2023-03-03T06:31:44.034Z,37.67
2023-03-03T06:34:29.321Z,36.90
2023-03-03T06:37:14.758Z,33.63
2023-03-03T06:40:00.603Z,37.85
2023-03-03T06:42:46.286Z,35.67
2023-03-03T06:45:31.713Z,35.40
2023-03-03T06:48:17.055Z,34.40
2023-03-03T06:51:09.382Z,37.67
2023-03-03T06:53:56.832Z,36.65
2023-03-03T06:56:43.688Z,38.75
2023-03-03T06:59:29.103Z,32.13
2023-03-03T07:02:17.333Z,33.53
2023-03-03T07:05:06.298Z,38.28
2023-03-03T07:07:51.877Z,31.42
2023-03-03T07:10:36.932Z,30.33
2023-03-03T07:13:24.394Z,32.13
2023-03-03T07:16:12.785Z,30.40
2023-03-03T07:19:01.562Z,30.63
2023-03-03T07:21:46.948Z,38.13
2023-03-03T07:24:33.169Z,31.98
2023-03-03T07:27:31.711Z,33.30
2023-03-03T07:30:27.988Z,37.85
2023-03-03T07:33:27.619Z,30.40
2023-03-03T07:36:27.728Z,33.25
2023-03-03T07:39:26.106Z,30.05
2023-03-03T07:42:27.815Z,33.22
2023-03-03T07:45:27.757Z,27.13
2023-03-03T07:48:13.082Z,32.15
2023-03-03T07:51:04.946Z,33.20
2023-03-03T07:53:50.368Z,30.42
2023-03-03T07:56:36.574Z,33.50
2023-03-03T07:59:25.789Z,30.70
2023-03-03T08:02:27.713Z,29.70
2023-03-03T08:05:34.770Z,32.92
2023-03-03T08:08:31.059Z,35.85
2023-03-03T08:11:16.169Z,35.95
2023-03-03T08:14:01.825Z,22.60
2023-03-03T08:16:46.997Z,30.05
2023-03-03T08:19:33.988Z,29.73
2023-03-03T08:22:30.340Z,30.50
2023-03-03T08:25:15.691Z,26.80
2023-03-03T08:28:02.083Z,30.20
2023-03-03T08:30:48.834Z,29.35
2023-03-03T08:33:34.496Z,28.45
2023-03-03T08:36:19.700Z,32.78
2023-03-03T08:39:05.374Z,32.08
2023-03-03T08:41:50.469Z,26.52
2023-03-03T08:44:35.824Z,26.92
2023-03-03T08:47:21.423Z,29.02
2023-03-03T08:50:06.823Z,28.98
2023-03-03T08:52:52.305Z,30.48
2023-03-03T08:55:37.577Z,31.80
2023-03-03T08:58:33.458Z,26.40
2023-03-03T09:01:20.167Z,30.38
2023-03-03T09:04:05.527Z,28.67
2023-03-03T09:06:50.814Z,30.70
2023-03-03T09:09:37.388Z,28.27
2023-03-03T09:12:38.144Z,26.15
2023-03-03T09:15:28.977Z,22.15
2023-03-03T09:18:23.173Z,28.17
2023-03-03T09:21:22.469Z,25.95
2023-03-03T09:24:36.165Z,25.48
2023-03-03T09:27:30.455Z,27.95
2023-03-03T09:30:45.952Z,26.02
2023-03-03T09:33:42.363Z,26.50
2023-03-03T09:36:37.490Z,25.90
2023-03-03T09:39:31.149Z,24.65
2023-03-03T09:42:52.833Z,25.98
2023-03-03T09:46:01.981Z,26.15
2023-03-03T09:49:27.960Z,26.13
2023-03-03T09:52:40.510Z,23.45
2023-03-03T09:55:59.238Z,28.17
2023-03-03T09:59:12.461Z,28.05
2023-03-03T10:02:20.197Z,22.42
2023-03-03T10:05:53.074Z,24.50
2023-03-03T10:08:44.538Z,26.05
2023-03-03T10:11:46.854Z,26.60
2023-03-03T10:14:43.888Z,24.20
2023-03-03T10:17:53.206Z,24.13
2023-03-03T10:20:53.753Z,25.10
2023-03-03T10:23:48.563Z,22.95
2023-03-03T10:27:13.915Z,25.25
2023-03-03T10:30:20.143Z,26.80
2023-03-03T10:33:09.863Z,28.10
2023-03-03T10:36:20.085Z,20.52
2023-03-03T10:39:48.361Z,22.52
2023-03-03T10:43:19.732Z,21.50
2023-03-03T10:46:29.286Z,26.67
2023-03-03T10:49:26.418Z,22.58
2023-03-03T10:52:22.327Z,20.85
2023-03-03T10:55:28.901Z,23.67
2023-03-03T10:58:30.377Z,24.75
2023-03-03T11:01:45.151Z,24.10
2023-03-03T11:05:19.115Z,21.40
2023-03-03T11:08:14.098Z,20.45
2023-03-03T11:11:26.841Z,22.55
2023-03-03T11:14:33.695Z,20.45
2023-03-03T11:17:43.311Z,19.15
2023-03-03T11:20:51.524Z,20.73
2023-03-03T11:23:52.351Z,19.42
2023-03-03T11:26:49.473Z,23.17
2023-03-03T11:29:44.706Z,19.75
2023-03-03T11:32:58.065Z,18.70
2023-03-03T11:36:08.907Z,20.05
2023-03-03T11:39:01.788Z,19.00
2023-03-03T11:41:54.348Z,18.92
2023-03-03T11:45:05.588Z,18.52
2023-03-03T11:48:03.520Z,18.02
2023-03-03T11:50:58.860Z,18.05
2023-03-03T11:53:48.406Z,18.17
2023-03-03T11:56:45.989Z,16.90
2023-03-03T11:59:34.600Z,17.67
2023-03-03T12:02:28.772Z,20.17
2023-03-03T12:05:25.764Z,19.67
2023-03-03T12:08:56.801Z,15.20
2023-03-03T12:12:07.161Z,19.23
2023-03-03T12:15:03.776Z,24.23
2023-03-03T12:18:14.891Z,15.73
2023-03-03T12:21:13.097Z,15.93
2023-03-03T12:24:03.715Z,18.10
2023-03-03T12:27:06.607Z,19.15
2023-03-03T12:30:20.345Z,18.45
2023-03-03T12:33:23.400Z,17.02
2023-03-03T12:36:21.577Z,18.85
2023-03-03T12:39:13.673Z,16.05
2023-03-03T12:42:12.183Z,18.05
2023-03-03T12:45:34.494Z,18.40
2023-03-03T12:48:42.471Z,15.55
2023-03-03T12:51:36.926Z,15.85
2023-03-03T12:54:25.329Z,19.55
2023-03-03T12:57:31.571Z,16.05
2023-03-03T13:00:45.064Z,15.57
2023-03-03T13:03:53.329Z,16.02
2023-03-03T13:07:08.179Z,16.05
2023-03-03T13:10:18.775Z,18.48
2023-03-03T13:13:15.878Z,17.27
2023-03-03T13:16:06.885Z,16.83
2023-03-03T13:19:09.680Z,21.52
2023-03-03T13:22:29.992Z,17.85
2023-03-03T13:25:29.502Z,17.50
2023-03-03T13:28:36.790Z,18.60
2023-03-03T13:31:25.228Z,16.58
2023-03-03T13:34:39.498Z,16.15
2023-03-03T13:37:32.162Z,23.65
2023-03-03T13:40:19.137Z,17.10
2023-03-03T13:43:18.710Z,17.45
2023-03-03T13:46:14.661Z,19.95
2023-03-03T13:49:19.146Z,19.25
2023-03-03T13:52:28.049Z,15.35
2023-03-03T13:55:16.265Z,20.25
2023-03-03T13:58:36.817Z,23.33
2023-03-03T14:01:48.434Z,18.33
2023-03-03T14:04:39.879Z,18.98
2023-03-03T14:07:34.540Z,19.83
2023-03-03T14:10:28.056Z,18.95
2023-03-03T14:13:25.082Z,17.83
2023-03-03T14:16:38.794Z,20.80
2023-03-03T14:20:17.019Z,19.48
2023-03-03T14:23:10.136Z,17.40
2023-03-03T14:26:04.532Z,17.05
2023-03-03T14:28:52.574Z,21.80
2023-03-03T14:31:43.499Z,16.80
2023-03-03T14:34:38.509Z,16.10
2023-03-03T14:37:30.369Z,17.33
2023-03-03T14:40:18.586Z,16.70
2023-03-03T14:43:33.971Z,17.10
2023-03-03T14:46:41.764Z,16.73
2023-03-03T14:49:35.093Z,17.42
2023-03-03T14:52:33.100Z,19.73
2023-03-03T14:55:35.692Z,17.58
2023-03-03T14:58:30.688Z,17.45
2023-03-03T15:01:32.357Z,15.52
2023-03-03T15:04:17.498Z,14.93
2023-03-03T15:07:25.973Z,17.35
2023-03-03T15:10:13.441Z,17.17
2023-03-03T15:12:59.471Z,19.70
2023-03-03T15:16:00.634Z,17.88
2023-03-03T15:19:01.221Z,18.15
2023-03-03T15:22:21.367Z,16.80
2023-03-03T15:25:24.146Z,15.07
2023-03-03T15:28:16.444Z,14.43
2023-03-03T15:31:13.530Z,15.18
2023-03-03T15:34:05.862Z,16.98
2023-03-03T15:37:23.698Z,23.17
2023-03-03T15:40:21.005Z,16.60
2023-03-03T15:43:28.240Z,22.40
2023-03-03T15:46:28.927Z,20.48
2023-03-03T15:49:29.865Z,16.50
2023-03-03T15:52:34.450Z,21.90
2023-03-03T15:56:08.130Z,17.40
2023-03-03T16:01:48.862Z,18.35
2023-03-03T16:04:38.921Z,21.80
2023-03-03T16:07:54.916Z,20.05
2023-03-03T16:11:24.516Z,23.25
2023-03-03T16:14:31.328Z,21.63
2023-03-03T16:17:28.341Z,25.48
2023-03-03T16:20:23.052Z,22.02
2023-03-03T16:23:22.308Z,21.95
2023-03-03T16:26:27.371Z,23.23
2023-03-03T16:29:23.141Z,21.88
2023-03-03T16:32:23.545Z,21.55
2023-03-03T16:35:22.785Z,22.27
2023-03-03T16:38:21.308Z,20.88
2023-03-03T16:41:19.450Z,22.00
2023-03-03T16:44:12.236Z,20.90
2023-03-03T16:47:18.384Z,24.95
2023-03-03T16:50:21.713Z,23.73
2023-03-03T16:53:39.439Z,24.13
2023-03-03T16:56:33.890Z,20.77
2023-03-03T16:59:57.759Z,21.83
2023-03-03T17:03:17.523Z,23.02
2023-03-03T17:06:21.209Z,18.13
2023-03-03T17:09:34.588Z,20.90
2023-03-03T17:12:34.786Z,21.33
2023-03-03T17:16:09.064Z,25.90
2023-03-03T17:19:24.876Z,26.98
2023-03-03T17:22:29.195Z,22.08
2023-03-03T17:25:14.364Z,22.58
2023-03-03T17:28:26.026Z,21.73
2023-03-03T17:31:47.008Z,23.17
2023-03-03T17:34:44.423Z,18.60
2023-03-03T17:37:35.298Z,18.38
2023-03-03T17:40:27.250Z,20.25
2023-03-03T17:43:36.566Z,18.13
2023-03-03T17:46:34.490Z,19.52
2023-03-03T17:49:25.681Z,19.30
2023-03-03T17:52:28.601Z,20.63
2023-03-03T17:55:39.509Z,21.88
2023-03-03T17:58:50.468Z,19.92
2023-03-03T18:02:02.718Z,19.88
2023-03-03T18:05:18.314Z,21.33
2023-03-03T18:08:27.041Z,20.95
2023-03-03T18:11:29.723Z,18.45
2023-03-03T18:14:26.781Z,17.98
2023-03-03T18:17:30.855Z,16.90
2023-03-03T18:20:38.591Z,18.60
2023-03-03T18:23:41.665Z,19.13
2023-03-03T18:26:29.711Z,17.38
2023-03-03T18:29:18.864Z,16.90
2023-03-03T18:32:18.016Z,20.80
2023-03-03T18:35:30.324Z,18.00
2023-03-03T18:38:15.367Z,18.58
2023-03-03T18:41:03.466Z,17.90
2023-03-03T18:43:53.799Z,18.83
2023-03-03T18:46:38.953Z,16.40
2023-03-03T18:49:49.144Z,21.52
2023-03-03T18:52:35.108Z,15.20
2023-03-03T18:55:26.016Z,14.30
2023-03-03T18:58:14.095Z,18.52
2023-03-03T19:01:08.201Z,15.02
2023-03-03T19:03:53.372Z,14.02
2023-03-03T19:06:38.791Z,12.70
2023-03-03T19:09:45.086Z,16.27
2023-03-03T19:12:47.765Z,15.70
2023-03-03T19:15:33.628Z,17.90
2023-03-03T19:18:21.064Z,12.27
2023-03-03T19:21:20.029Z,14.02
2023-03-03T19:24:27.325Z,13.48
2023-03-03T19:27:37.089Z,14.93
2023-03-03T19:30:58.123Z,13.07
2023-03-03T19:33:57.149Z,15.63
2023-03-03T19:36:54.478Z,13.27
2023-03-03T19:40:12.064Z,14.00
2023-03-03T19:43:21.804Z,13.18
2023-03-03T19:46:22.920Z,16.40
2023-03-03T19:49:37.452Z,13.18
2023-03-03T19:52:29.899Z,15.80
2023-03-03T19:55:22.003Z,16.15
2023-03-03T19:58:42.968Z,17.23
2023-03-03T20:01:46.876Z,17.80
2023-03-03T20:04:39.606Z,13.45
2023-03-03T20:07:24.720Z,15.38
2023-03-03T20:10:16.066Z,15.32
2023-03-03T20:13:39.096Z,14.48
2023-03-03T20:16:42.838Z,14.93
2023-03-03T20:19:54.890Z,11.57
2023-03-03T20:23:05.375Z,13.40
2023-03-03T20:26:00.753Z,12.32
2023-03-03T20:29:21.026Z,12.52
2023-03-03T20:32:27.110Z,13.90
2023-03-03T20:35:28.493Z,12.82
2023-03-03T20:38:47.358Z,13.32
2023-03-03T20:42:05.777Z,15.95
2023-03-03T20:45:04.246Z,12.80
2023-03-03T20:47:56.505Z,11.55
2023-03-03T20:51:02.358Z,12.77
2023-03-03T20:54:07.232Z,13.05
2023-03-03T20:57:46.892Z,12.60
2023-03-03T21:01:11.290Z,13.75
2023-03-03T21:04:16.665Z,13.60
2023-03-03T21:07:03.855Z,12.35
2023-03-03T21:09:49.293Z,12.25
2023-03-03T21:12:34.847Z,11.63
2023-03-03T21:15:26.311Z,11.77
2023-03-03T21:18:24.158Z,11.90
2023-03-03T21:21:09.235Z,12.30
2023-03-03T21:23:54.796Z,11.98
2023-03-03T21:26:57.800Z,12.63
2023-03-03T21:29:42.922Z,11.05
2023-03-03T21:32:41.813Z,11.02
2023-03-03T21:35:27.223Z,13.85
2023-03-03T21:38:32.574Z,11.05
2023-03-03T21:41:18.888Z,9.43
2023-03-03T21:44:44.021Z,13.18
2023-03-03T21:47:29.457Z,12.35
2023-03-03T21:50:14.910Z,12.13
2023-03-03T21:53:00.365Z,13.90
2023-03-03T21:55:49.552Z,11.30
2023-03-03T21:58:34.802Z,16.75
2023-03-03T22:01:20.414Z,14.32
2023-03-03T22:04:05.897Z,11.30
2023-03-03T22:06:52.728Z,14.82
2023-03-03T22:09:38.672Z,11.63
2023-03-03T22:12:24.063Z,11.93
2023-03-03T22:15:09.832Z,13.18
2023-03-03T22:17:56.323Z,11.98
2023-03-03T22:20:41.580Z,13.10
2023-03-03T22:23:26.640Z,12.75
2023-03-03T22:26:12.013Z,13.80
2023-03-03T22:28:57.434Z,13.32
2023-03-03T22:31:42.867Z,11.75
2023-03-03T22:34:28.609Z,12.20
2023-03-03T22:37:13.942Z,16.25
2023-03-03T22:39:59.299Z,11.02
2023-03-03T22:42:44.816Z,13.32
2023-03-03T22:45:30.154Z,11.93
2023-03-03T22:48:15.526Z,12.77
2023-03-03T22:51:00.986Z,12.48
2023-03-03T22:53:46.308Z,11.70
2023-03-03T22:56:31.790Z,14.68
2023-03-03T22:59:17.330Z,11.80
2023-03-03T23:02:02.962Z,15.00
2023-03-03T23:04:48.060Z,15.35
2023-03-03T23:07:34.824Z,17.05
2023-03-03T23:10:20.177Z,14.32
2023-03-03T23:13:05.607Z,13.98
2023-03-03T23:15:51.179Z,14.57
2023-03-03T23:18:36.330Z,13.57
2023-03-03T23:21:21.809Z,13.80
2023-03-03T23:24:07.577Z,13.60
2023-03-03T23:26:56.738Z,13.65
2023-03-03T23:29:42.063Z,14.90
2023-03-03T23:32:28.044Z,15.13
2023-03-03T23:35:13.724Z,14.80
2023-03-03T23:37:59.138Z,13.50
2023-03-03T23:40:46.775Z,14.43
2023-03-03T23:43:32.010Z,12.93
2023-03-03T23:46:17.533Z,12.75
2023-03-03T23:49:02.830Z,14.55
2023-03-03T23:51:48.255Z,12.43
2023-03-03T23:54:33.910Z,13.68
2023-03-03T23:57:19.579Z,13.30
